Time;durP1;ratioP1;P1;durP2;ratioP2;P2;SDS_P1;SDS_P2;PMS_P1;PMS_P2;Temp;Humidity;BMP_temperature;BMP_pressure;BME280_temperature;BME280_humidity;BME280_pressure;Samples;Min_cycle;Max_cycle;Signal;HPM_P1;HPM_P2
2021/07/13 00:00:43;;;;;;;5.73;3.73;;;;;;;24.25;100.00;100292.86;1726088;81;21040;-62
2021/07/13 00:03:10;;;;;;;5.57;3.63;;;;;;;24.26;100.00;100292.33;1727087;81;21017;-63
2021/07/13 00:05:38;;;;;;;7.27;3.90;;;;;;;24.28;100.00;100295.50;1726958;81;21467;-63
2021/07/13 00:08:07;;;;;;;7.28;4.53;;;;;;;24.09;100.00;100291.84;1725959;83;21443;-63
2021/07/13 00:10:39;;;;;;;5.87;4.70;;;;;;;24.19;100.00;100293.94;1725241;83;21009;-61
2021/07/13 00:13:07;;;;;;;6.77;4.53;;;;;;;24.30;100.00;100290.70;1725630;81;20954;-64
2021/07/13 00:15:37;;;;;;;6.63;4.43;;;;;;;24.27;100.00;100296.57;1737204;81;20977;-62
2021/07/13 00:18:06;;;;;;;6.67;4.00;;;;;;;24.32;100.00;100291.24;1728164;81;21295;-63
2021/07/13 00:20:33;;;;;;;8.73;3.90;;;;;;;23.53;100.00;100289.56;1725834;83;21174;-64
2021/07/13 00:23:01;;;;;;;6.23;3.23;;;;;;;23.23;100.00;100289.05;1726883;81;21315;-64
2021/07/13 00:25:29;;;;;;;5.83;4.03;;;;;;;22.82;100.00;100293.50;1726857;82;20970;-59
2021/07/13 00:27:57;;;;;;;5.83;3.73;;;;;;;23.13;100.00;100296.22;1726459;82;21005;-63
2021/07/13 00:30:24;;;;;;;5.43;3.50;;;;;;;23.08;100.00;100300.21;1701460;82;21103;-63
2021/07/13 00:32:51;;;;;;;5.10;3.37;;;;;;;22.96;100.00;100298.61;1726016;83;21594;-63
2021/07/13 00:35:17;;;;;;;5.73;3.40;;;;;;;23.08;100.00;100301.55;1725891;83;21040;-64
2021/07/13 00:37:44;;;;;;;4.87;3.80;;;;;;;23.00;100.00;100293.02;1726859;81;20938;-63
2021/07/13 00:40:12;;;;;;;8.23;4.70;;;;;;;22.76;100.00;100299.84;1733027;81;21450;-63
2021/07/13 00:42:38;;;;;;;12.47;4.50;;;;;;;22.59;100.00;100295.56;1726050;82;21468;-61
2021/07/13 00:45:06;;;;;;;7.20;4.00;;;;;;;22.49;100.00;100290.22;1726628;81;21175;-64
2021/07/13 00:47:35;;;;;;;6.27;3.70;;;;;;;22.47;100.00;100294.21;1726229;82;21471;-59
2021/07/13 00:50:02;;;;;;;8.30;3.93;;;;;;;22.42;100.00;100295.50;1727063;81;22310;-62
2021/07/13 00:52:29;;;;;;;6.03;3.73;;;;;;;22.44;100.00;100293.40;1726458;83;22235;-62
2021/07/13 00:54:56;;;;;;;6.17;3.60;;;;;;;22.32;100.00;100289.64;1725926;82;21547;-61
2021/07/13 00:57:23;;;;;;;7.30;5.20;;;;;;;22.28;100.00;100290.69;1700027;83;21157;-62
2021/07/13 00:59:49;;;;;;;5.67;4.07;;;;;;;22.24;100.00;100294.13;1727073;81;20946;-63
2021/07/13 01:02:17;;;;;;;6.80;4.10;;;;;;;22.16;100.00;100290.61;1726110;82;21502;-63
2021/07/13 01:04:50;;;;;;;7.37;4.07;;;;;;;22.13;100.00;100297.77;1726815;81;21006;-62
2021/07/13 01:07:46;;;;;;;5.57;3.67;;;;;;;22.10;100.00;100292.43;1727073;81;21001;-60
2021/07/13 01:10:38;;;;;;;7.93;4.33;;;;;;;22.09;100.00;100292.16;1726341;81;21235;-64
2021/07/13 01:13:25;;;;;;;6.73;3.90;;;;;;;22.15;100.00;100291.67;1730790;81;21016;-62
2021/07/13 01:15:56;;;;;;;6.63;4.20;;;;;;;22.11;100.00;100288.17;1726197;81;21004;-62
2021/07/13 01:18:28;;;;;;;4.77;3.53;;;;;;;22.08;100.00;100290.02;1690140;83;21080;-59
2021/07/13 01:21:23;;;;;;;11.30;4.60;;;;;;;21.96;100.00;100289.96;1727317;81;21100;-63
2021/07/13 01:24:30;;;;;;;4.43;3.13;;;;;;;21.86;100.00;100292.05;1724938;83;22058;-60
2021/07/13 01:27:06;;;;;;;6.43;3.43;;;;;;;21.73;100.00;100295.93;1726939;83;21053;-64
2021/07/13 01:29:34;;;;;;;4.70;3.10;;;;;;;21.64;100.00;100292.17;1689431;82;20942;-64
2021/07/13 01:32:02;;;;;;;10.80;3.60;;;;;;;21.79;100.00;100291.47;1725712;81;21124;-63
2021/07/13 01:34:40;;;;;;;10.93;3.60;;;;;;;21.47;100.00;100292.30;1717171;81;21057;-60
2021/07/13 01:37:09;;;;;;;6.60;4.53;;;;;;;21.41;100.00;100296.52;1695829;83;21096;-63
2021/07/13 01:39:37;;;;;;;9.13;5.30;;;;;;;21.44;100.00;100296.81;1726394;81;20950;-64
2021/07/13 01:42:07;;;;;;;6.80;4.50;;;;;;;21.44;100.00;100298.14;1735128;81;21839;-60
2021/07/13 01:44:35;;;;;;;6.87;4.15;;;;;;;21.48;100.00;100301.05;1725651;82;20966;-64
2021/07/13 01:47:02;;;;;;;6.10;3.80;;;;;;;21.52;100.00;100304.83;1726847;81;21621;-63
2021/07/13 01:49:28;;;;;;;6.57;3.67;;;;;;;21.49;100.00;100298.70;1715349;83;22221;-60
2021/07/13 01:51:56;;;;;;;5.63;3.70;;;;;;;21.53;100.00;100305.09;1726092;83;21487;-63
2021/07/13 01:54:25;;;;;;;7.60;3.50;;;;;;;21.65;100.00;100306.23;1695766;83;21087;-60
2021/07/13 01:56:55;;;;;;;6.37;3.83;;;;;;;21.51;100.00;100306.66;1699161;81;21426;-63
2021/07/13 01:59:22;;;;;;;5.85;3.85;;;;;;;21.39;100.00;100308.69;1726202;81;21617;-62
2021/07/13 02:01:49;;;;;;;7.57;4.07;;;;;;;21.45;100.00;100309.01;1726281;81;21159;-58
2021/07/13 02:04:16;;;;;;;6.60;3.70;;;;;;;21.58;100.00;100307.23;1726716;81;21009;-63
2021/07/13 02:06:44;;;;;;;5.77;3.57;;;;;;;21.70;100.00;100308.91;1737370;81;21021;-62
2021/07/13 02:09:14;;;;;;;5.23;3.33;;;;;;;22.06;100.00;100300.11;1727117;81;21350;-62
2021/07/13 02:11:44;;;;;;;7.92;3.52;;;;;;;22.41;100.00;100300.55;1737006;81;20973;-62
2021/07/13 02:14:13;;;;;;;7.00;3.43;;;;;;;22.62;100.00;100296.12;1727327;81;20903;-62
2021/07/13 02:16:40;;;;;;;5.03;3.20;;;;;;;23.11;100.00;100300.98;1666224;84;21047;-59
2021/07/13 02:19:08;;;;;;;6.73;2.67;;;;;;;23.31;100.00;100298.36;1727006;81;21008;-63
2021/07/13 02:21:35;;;;;;;6.77;3.50;;;;;;;23.63;100.00;100295.92;1726373;82;21014;-61
2021/07/13 02:24:05;;;;;;;6.37;3.20;;;;;;;23.91;100.00;100288.72;1727699;81;20984;-63
2021/07/13 02:26:44;;;;;;;4.87;3.33;;;;;;;24.21;100.00;100287.03;1726830;83;21801;-59
2021/07/13 02:29:20;;;;;;;5.77;3.50;;;;;;;24.33;100.00;100292.03;1725875;82;20924;-63
2021/07/13 02:31:54;;;;;;;4.67;3.30;;;;;;;24.56;100.00;100287.41;1732611;81;21671;-63
2021/07/13 02:34:21;;;;;;;5.23;3.10;;;;;;;24.69;100.00;100286.79;1720925;82;21822;-64
2021/07/13 02:36:51;;;;;;;5.30;3.13;;;;;;;25.05;100.00;100285.23;1721343;82;21088;-64
2021/07/13 02:39:19;;;;;;;5.67;3.30;;;;;;;25.29;100.00;100283.98;1727176;81;22237;-65
2021/07/13 02:41:48;;;;;;;7.27;3.73;;;;;;;25.44;100.00;100277.72;1731786;81;21083;-63
2021/07/13 02:44:15;;;;;;;7.57;3.77;;;;;;;25.51;100.00;100285.41;1696268;83;22020;-65
2021/07/13 02:46:45;;;;;;;9.73;3.87;;;;;;;25.82;100.00;100284.58;1702515;83;21079;-65
2021/07/13 02:49:21;;;;;;;6.95;4.25;;;;;;;26.30;100.00;100283.22;1729551;81;21153;-63
2021/07/13 02:51:50;;;;;;;7.47;3.90;;;;;;;26.51;100.00;100284.55;1729387;81;21498;-64
2021/07/13 02:54:23;;;;;;;6.37;3.87;;;;;;;26.41;100.00;100288.14;1729709;81;21008;-64
2021/07/13 02:56:50;;;;;;;5.50;3.80;;;;;;;26.42;100.00;100288.39;1696894;83;21018;-64
2021/07/13 02:59:22;;;;;;;6.73;4.20;;;;;;;26.87;100.00;100282.17;1728451;81;21078;-60
2021/07/13 03:01:49;;;;;;;5.40;4.13;;;;;;;27.14;100.00;100278.03;1757497;77;21029;-65
2021/07/13 03:04:16;;;;;;;6.87;3.40;;;;;;;27.32;100.00;100275.86;1815375;78;21055;-67
2021/07/13 03:06:43;;;;;;;7.93;4.97;;;;;;;27.68;100.00;100272.52;1814449;79;21045;-68
2021/07/13 03:09:11;;;;;;;5.55;3.52;;;;;;;28.20;99.98;100275.81;1814541;78;20980;-66
2021/07/13 03:11:38;;;;;;;6.15;3.02;;;;;;;28.66;95.33;100274.83;1813981;78;20973;-61
2021/07/13 03:14:08;;;;;;;6.37;3.42;;;;;;;29.23;85.80;100280.47;1787032;79;35761;-66
2021/07/13 03:16:36;;;;;;;6.03;4.05;;;;;;;29.68;79.61;100279.61;1815000;78;21144;-66
2021/07/13 03:19:03;;;;;;;5.22;3.60;;;;;;;30.29;71.75;100286.75;1814192;79;21464;-65
2021/07/13 03:21:36;;;;;;;7.30;3.25;;;;;;;30.76;67.38;100288.33;1814401;79;21328;-64
2021/07/13 03:24:04;;;;;;;6.03;3.55;;;;;;;31.28;63.90;100292.03;1813999;79;21284;-67
2021/07/13 03:26:37;;;;;;;6.75;3.37;;;;;;;31.28;63.90;100292.03;1814430;79;20985;-67
2021/07/13 03:29:05;;;;;;;6.95;3.62;;;;;;;31.63;59.94;100277.91;1814213;79;21120;-65
2021/07/13 03:31:32;;;;;;;5.72;4.35;;;;;;;32.19;56.21;100273.97;1779714;79;20999;-63
2021/07/13 03:34:00;;;;;;;5.85;3.72;;;;;;;32.61;53.24;100276.70;1809754;78;21892;-61
2021/07/13 03:36:27;;;;;;;5.67;3.75;;;;;;;32.92;50.50;100275.46;1793460;78;21553;-65
2021/07/13 03:38:53;;;;;;;7.55;3.92;;;;;;;33.10;47.52;100272.84;1795752;78;21117;-65
2021/07/13 03:41:20;;;;;;;6.00;3.12;;;;;;;32.83;47.64;100280.17;1795761;78;21188;-65
2021/07/13 03:43:47;;;;;;;4.65;3.10;;;;;;;33.04;45.93;100276.91;1794884;78;20932;-65
2021/07/13 03:46:14;;;;;;;7.58;3.20;;;;;;;32.97;45.26;100283.41;1795407;78;21126;-65
2021/07/13 03:48:41;;;;;;;7.70;3.27;;;;;;;32.94;45.11;100281.36;1795490;78;21051;-65
2021/07/13 03:51:10;;;;;;;5.67;3.25;;;;;;;32.89;46.21;100282.91;1795927;78;21074;-65
2021/07/13 03:53:39;;;;;;;6.72;3.40;;;;;;;32.99;46.13;100283.84;1776128;78;20952;-61
2021/07/13 03:56:06;;;;;;;6.30;3.20;;;;;;;33.24;45.27;100286.05;1795323;78;20968;-60
2021/07/13 03:58:32;;;;;;;5.35;3.30;;;;;;;33.50;44.71;100276.89;1795068;78;21047;-65
2021/07/13 04:00:59;;;;;;;4.78;2.80;;;;;;;33.82;43.38;100282.73;1781639;78;20934;-64
2021/07/13 04:03:26;;;;;;;4.25;3.02;;;;;;;33.95;40.37;100279.48;1789388;79;21037;-62
2021/07/13 04:05:53;;;;;;;4.83;2.72;;;;;;;33.55;40.67;100287.47;1789078;80;22254;-60
2021/07/13 04:08:20;;;;;;;6.42;2.83;;;;;;;33.44;40.94;100277.63;1789148;79;21025;-63
2021/07/13 04:10:46;;;;;;;9.13;2.70;;;;;;;33.51;40.14;100279.25;1788949;80;21454;-63
2021/07/13 04:13:13;;;;;;;4.40;2.65;;;;;;;33.53;40.82;100281.06;1789584;79;21054;-64
2021/07/13 04:15:42;;;;;;;5.25;2.40;;;;;;;33.80;39.92;100282.30;1789555;79;21065;-64
2021/07/13 04:18:11;;;;;;;4.58;2.67;;;;;;;33.73;39.82;100284.78;1789340;79;21504;-62
2021/07/13 04:20:39;;;;;;;6.22;2.33;;;;;;;33.99;38.78;100280.97;1789050;80;21697;-63
2021/07/13 04:23:05;;;;;;;4.90;2.25;;;;;;;34.03;38.78;100289.41;1789061;80;20903;-62
2021/07/13 04:25:32;;;;;;;4.95;2.20;;;;;;;34.30;38.44;100287.11;1789046;79;21562;-62
2021/07/13 04:27:59;;;;;;;7.78;2.87;;;;;;;34.49;37.42;100291.90;1788079;80;20892;-61
2021/07/13 04:30:27;;;;;;;4.87;2.65;;;;;;;34.52;36.91;100292.61;1787566;78;21278;-59
2021/07/13 04:32:54;;;;;;;4.87;2.60;;;;;;;34.66;36.70;100293.55;1788743;80;21465;-62
2021/07/13 04:35:21;;;;;;;4.78;2.65;;;;;;;34.82;36.50;100293.84;1788061;79;21057;-62
2021/07/13 04:37:48;;;;;;;4.60;2.67;;;;;;;34.85;35.17;100295.05;1790023;79;21425;-60
2021/07/13 04:40:14;;;;;;;5.10;2.40;;;;;;;34.94;34.97;100288.14;1789663;79;20922;-62
2021/07/13 04:42:41;;;;;;;3.85;2.08;;;;;;;34.83;35.22;100294.62;1789337;79;21132;-64
2021/07/13 04:45:10;;;;;;;7.58;2.83;;;;;;;34.78;35.49;100294.87;1789773;79;21296;-61
2021/07/13 04:47:38;;;;;;;6.95;2.90;;;;;;;34.99;35.31;100292.75;1789433;80;20907;-61
2021/07/13 04:50:07;;;;;;;4.08;2.40;;;;;;;35.19;35.33;100299.06;1788860;79;20883;-60
2021/07/13 04:52:33;;;;;;;4.10;2.30;;;;;;;35.42;35.17;100302.53;1788649;80;21827;-63
2021/07/13 04:55:00;;;;;;;5.62;2.33;;;;;;;35.70;33.97;100297.06;1788184;79;21193;-63
2021/07/13 04:57:28;;;;;;;4.33;2.65;;;;;;;35.60;33.81;100294.30;1776834;79;21482;-62
2021/07/13 04:59:54;;;;;;;7.95;2.60;;;;;;;35.79;33.45;100304.42;1789961;79;21479;-62
2021/07/13 05:02:21;;;;;;;4.72;2.80;;;;;;;35.90;32.17;100296.54;1776124;79;21000;-62
2021/07/13 05:04:49;;;;;;;5.53;2.55;;;;;;;35.80;32.65;100300.56;1788796;79;21029;-63
2021/07/13 05:07:15;;;;;;;4.33;2.20;;;;;;;35.97;32.81;100298.06;1788105;80;21080;-64
2021/07/13 05:09:42;;;;;;;5.70;2.77;;;;;;;36.04;31.68;100299.03;1788914;79;21085;-61
2021/07/13 05:12:09;;;;;;;3.40;2.40;;;;;;;35.80;32.05;100309.52;1788808;79;20923;-59
2021/07/13 05:14:36;;;;;;;3.12;2.20;;;;;;;35.55;32.12;100302.14;1789403;79;21450;-61
2021/07/13 05:17:04;;;;;;;3.62;2.10;;;;;;;35.60;32.14;100309.21;1790028;78;21587;-62
2021/07/13 05:19:34;;;;;;;4.10;2.20;;;;;;;35.60;32.67;100304.36;1788456;80;21532;-62
2021/07/13 05:22:02;;;;;;;7.22;2.40;;;;;;;36.29;32.03;100306.91;1789103;80;21021;-63
2021/07/13 05:24:29;;;;;;;4.53;2.60;;;;;;;36.48;31.37;100311.05;1776665;80;20947;-63
2021/07/13 05:26:56;;;;;;;4.95;2.52;;;;;;;36.75;30.44;100305.18;1769502;79;21595;-64
2021/07/13 05:29:23;;;;;;;3.75;2.15;;;;;;;36.77;30.73;100302.88;1771062;80;20969;-63
2021/07/13 05:31:49;;;;;;;4.30;2.47;;;;;;;36.78;30.66;100306.38;1787927;79;21135;-63
2021/07/13 05:34:16;;;;;;;4.78;2.37;;;;;;;36.80;30.21;100304.09;1789108;78;21024;-64
2021/07/13 05:37:02;;;;;;;4.87;2.85;;;;;;;36.73;30.74;100311.53;1785554;79;20970;-60
2021/07/13 05:39:29;;;;;;;5.47;2.35;;;;;;;36.96;30.08;100318.39;1778159;78;20930;-62
2021/07/13 05:41:56;;;;;;;4.10;2.52;;;;;;;36.57;30.40;100324.98;1775998;78;20993;-62
2021/07/13 05:44:23;;;;;;;3.90;2.40;;;;;;;36.58;30.85;100316.47;1772491;79;21211;-61
2021/07/13 05:46:49;;;;;;;5.62;2.58;;;;;;;37.13;30.56;100325.89;1770171;80;20971;-63
2021/07/13 05:49:15;;;;;;;4.05;2.62;;;;;;;37.10;30.70;100323.89;1769234;79;21461;-64
2021/07/13 05:51:44;;;;;;;3.47;2.27;;;;;;;36.94;30.56;100317.17;1768521;80;20967;-64
2021/07/13 05:54:11;;;;;;;6.05;2.50;;;;;;;36.98;30.13;100321.55;1766552;79;21219;-63
2021/07/13 05:56:38;;;;;;;4.85;2.65;;;;;;;37.03;30.43;100317.75;1764669;79;21835;-63
2021/07/13 05:59:05;;;;;;;7.33;2.60;;;;;;;37.09;31.12;100324.47;1778308;79;20977;-65
2021/07/13 06:01:32;;;;;;;4.35;2.15;;;;;;;37.25;30.65;100323.78;1760417;80;21101;-64
2021/07/13 06:03:59;;;;;;;5.05;2.62;;;;;;;37.26;29.99;100327.28;1780483;79;20962;-62
2021/07/13 06:06:27;;;;;;;5.60;2.60;;;;;;;37.14;30.08;100326.88;1767265;79;22289;-64
2021/07/13 06:08:54;;;;;;;4.53;2.60;;;;;;;36.97;30.44;100323.25;1745009;80;21504;-64
2021/07/13 06:11:20;;;;;;;9.80;2.90;;;;;;;36.76;31.92;100323.62;1776689;78;21183;-64
2021/07/13 06:13:47;;;;;;;5.42;2.55;;;;;;;37.01;30.77;100316.77;1770434;79;21011;-64
2021/07/13 06:16:14;;;;;;;4.87;2.70;;;;;;;37.05;30.33;100320.09;1739952;80;20998;-62
2021/07/13 06:18:42;;;;;;;6.78;2.55;;;;;;;37.04;30.64;100311.73;1770161;79;21342;-60
2021/07/13 06:21:09;;;;;;;7.35;2.90;;;;;;;37.25;30.10;100318.34;1770497;78;21093;-62
2021/07/13 06:23:37;;;;;;;4.75;2.70;;;;;;;37.35;30.35;100314.22;1747825;80;20977;-62
2021/07/13 06:26:05;;;;;;;8.13;2.58;;;;;;;37.58;30.06;100314.80;1788517;79;21005;-60
2021/07/13 06:28:33;;;;;;;4.37;2.47;;;;;;;37.60;29.78;100317.38;1775889;78;20998;-64
2021/07/13 06:31:00;;;;;;;4.33;2.70;;;;;;;37.58;30.09;100322.97;1787827;79;20915;-60
2021/07/13 06:33:27;;;;;;;4.42;2.42;;;;;;;37.66;30.35;100315.16;1786419;79;21236;-64
2021/07/13 06:35:53;;;;;;;3.15;2.40;;;;;;;37.85;30.53;100314.27;1785111;80;21523;-64
2021/07/13 06:38:20;;;;;;;4.87;2.60;;;;;;;38.15;30.54;100308.31;1780449;78;21039;-60
2021/07/13 06:40:46;;;;;;;4.97;2.58;;;;;;;38.30;30.56;100310.64;1753783;79;21106;-65
2021/07/13 06:43:14;;;;;;;9.88;2.87;;;;;;;38.36;29.48;100314.63;1768275;79;21566;-65
2021/07/13 06:45:42;;;;;;;7.30;2.90;;;;;;;38.44;30.17;100312.77;1770571;79;21536;-63
2021/07/13 06:48:10;;;;;;;5.00;2.15;;;;;;;38.80;28.62;100321.39;1769545;79;20966;-64
2021/07/13 06:50:36;;;;;;;3.37;2.27;;;;;;;38.59;28.60;100321.31;1778034;79;20955;-65
2021/07/13 06:53:03;;;;;;;4.67;2.22;;;;;;;38.50;29.16;100316.75;1786343;78;21074;-60
2021/07/13 06:55:30;;;;;;;11.25;2.58;;;;;;;38.50;29.24;100318.69;1780784;79;21045;-64
2021/07/13 06:57:57;;;;;;;5.05;2.60;;;;;;;38.34;29.56;100326.48;1785111;79;21106;-65
2021/07/13 07:00:23;;;;;;;5.78;3.17;;;;;;;38.36;29.56;100323.38;1788081;79;20927;-60
2021/07/13 07:02:50;;;;;;;4.33;2.40;;;;;;;38.48;29.41;100315.53;1785527;79;20976;-64
2021/07/13 07:05:16;;;;;;;5.25;2.20;;;;;;;38.42;28.96;100325.41;1788135;79;21002;-65
2021/07/13 07:07:50;;;;;;;6.22;2.42;;;;;;;38.11;29.74;100326.53;1787188;78;21140;-65
2021/07/13 07:10:17;;;;;;;5.40;2.92;;;;;;;38.11;30.05;100329.25;1776029;78;21829;-65
2021/07/13 07:12:44;;;;;;;6.22;2.47;;;;;;;38.02;29.75;100321.92;1786001;79;21049;-63
2021/07/13 07:15:13;;;;;;;6.40;2.90;;;;;;;37.96;30.06;100316.02;1783053;78;21360;-58
2021/07/13 07:17:53;;;;;;;4.43;2.57;;;;;;;38.00;30.02;100318.80;1786820;79;22578;-65
2021/07/13 07:20:26;;;;;;;6.15;2.85;;;;;;;37.87;29.35;100326.34;1788184;78;21078;-62
2021/07/13 07:22:57;;;;;;;6.05;2.72;;;;;;;37.88;29.31;100321.70;1787319;78;22328;-63
2021/07/13 07:25:27;;;;;;;5.10;2.77;;;;;;;38.10;29.66;100318.72;1759585;80;21026;-64
2021/07/13 07:27:56;;;;;;;6.62;2.70;;;;;;;38.42;28.91;100325.98;1744748;80;21547;-65
2021/07/13 07:30:22;;;;;;;4.17;2.08;;;;;;;38.46;28.42;100318.64;1749219;80;21058;-59
2021/07/13 07:32:49;;;;;;;6.70;2.20;;;;;;;38.34;28.85;100318.86;1786635;78;21107;-64
2021/07/13 07:35:16;;;;;;;6.40;2.62;;;;;;;38.34;29.66;100323.75;1772742;78;21158;-63
2021/07/13 07:37:43;;;;;;;3.65;2.15;;;;;;;38.30;28.95;100316.64;1768845;79;21052;-64
2021/07/13 07:40:18;;;;;;;8.88;2.65;;;;;;;38.44;28.14;100319.58;1768292;78;21612;-66
2021/07/13 07:42:44;;;;;;;5.15;2.60;;;;;;;38.33;28.58;100319.99;1764623;80;21510;-65
2021/07/13 07:45:12;;;;;;;4.35;2.37;;;;;;;38.45;28.83;100314.33;1751360;80;21539;-65
2021/07/13 07:47:39;;;;;;;6.08;2.75;;;;;;;38.72;28.29;100312.33;1771226;79;21021;-65
2021/07/13 07:50:07;;;;;;;10.28;3.35;;;;;;;38.79;28.13;100311.05;1785258;78;20982;-65
2021/07/13 07:52:34;;;;;;;6.65;2.40;;;;;;;38.61;27.73;100308.70;1786723;78;21504;-59
2021/07/13 07:55:01;;;;;;;7.33;2.92;;;;;;;38.66;27.84;100313.81;1786700;78;22450;-67
2021/07/13 07:57:27;;;;;;;5.17;3.22;;;;;;;38.63;27.61;100318.63;1769036;80;21065;-65
2021/07/13 07:59:54;;;;;;;9.15;2.75;;;;;;;38.68;28.10;100315.56;1786208;79;21112;-66
2021/07/13 08:02:21;;;;;;;6.50;3.00;;;;;;;38.75;28.15;100320.31;1780147;78;21434;-63
2021/07/13 08:04:48;;;;;;;9.18;2.55;;;;;;;38.74;27.79;100316.81;1819155;77;20925;-66
2021/07/13 08:07:20;;;;;;;5.47;2.92;;;;;;;38.82;28.80;100319.84;1802275;77;21517;-67
2021/07/13 08:09:48;;;;;;;3.77;2.15;;;;;;;39.09;27.42;100317.77;1793318;77;20989;-66
2021/07/13 08:12:17;;;;;;;6.17;2.30;;;;;;;38.46;26.89;100320.00;1816152;77;21444;-62
2021/07/13 08:14:45;;;;;;;4.28;2.55;;;;;;;38.79;27.32;100316.50;1800662;77;21040;-67
2021/07/13 08:17:14;;;;;;;6.25;2.27;;;;;;;38.88;27.51;100318.36;1808487;77;21048;-66
2021/07/13 08:19:42;;;;;;;3.57;2.57;;;;;;;38.97;26.77;100312.60;1808922;78;21122;-67
2021/07/13 08:22:10;;;;;;;4.10;2.30;;;;;;;38.77;27.52;100317.44;1801035;77;20989;-64
2021/07/13 08:24:37;;;;;;;3.22;2.10;;;;;;;38.77;26.69;100317.44;1800386;78;22248;-61
2021/07/13 08:27:05;;;;;;;2.80;1.90;;;;;;;38.88;26.92;100315.64;1797843;77;21136;-65
2021/07/13 08:29:33;;;;;;;5.42;2.37;;;;;;;38.91;27.25;100316.26;1804154;77;21045;-65
2021/07/13 08:31:59;;;;;;;4.53;2.22;;;;;;;38.86;27.22;100305.67;1794386;77;20981;-65
2021/07/13 08:34:27;;;;;;;7.78;2.47;;;;;;;38.80;26.86;100306.41;1806930;77;21033;-61
2021/07/13 08:36:54;;;;;;;3.10;2.05;;;;;;;38.60;27.53;100309.84;1803622;77;21104;-67
2021/07/13 08:39:21;;;;;;;2.98;2.20;;;;;;;38.62;27.73;100305.59;1797527;78;21475;-66
2021/07/13 08:41:49;;;;;;;2.75;2.10;;;;;;;38.74;27.09;100301.83;1802464;78;20977;-67
2021/07/13 08:44:17;;;;;;;6.78;2.30;;;;;;;38.86;26.54;100308.41;1803006;77;21112;-67
2021/07/13 08:46:45;;;;;;;3.95;2.00;;;;;;;38.86;26.84;100307.04;1800624;77;21605;-61
2021/07/13 08:49:13;;;;;;;5.03;2.10;;;;;;;38.75;26.24;100313.50;1796168;78;21731;-66
2021/07/13 08:51:41;;;;;;;4.40;2.05;;;;;;;38.67;25.42;100300.39;1797015;78;21028;-64
2021/07/13 08:54:10;;;;;;;4.80;2.27;;;;;;;38.42;25.67;100303.62;1806155;77;20989;-66
2021/07/13 08:56:37;;;;;;;4.30;2.40;;;;;;;38.14;25.99;100303.22;1800247;78;20945;-64
2021/07/13 08:59:05;;;;;;;4.78;2.00;;;;;;;38.03;26.35;100302.28;1810569;77;21033;-65
2021/07/13 09:01:32;;;;;;;3.65;1.90;;;;;;;38.08;25.27;100301.98;1806025;77;21151;-66
2021/07/13 09:04:05;;;;;;;3.33;1.80;;;;;;;37.41;25.86;100297.04;1793989;77;21069;-64
2021/07/13 09:06:55;;;;;;;6.40;2.10;;;;;;;37.40;25.81;100296.84;1783416;79;21500;-64
2021/07/13 09:09:30;;;;;;;4.95;2.00;;;;;;;37.45;26.33;100302.77;1785315;79;21453;-64
2021/07/13 09:12:09;;;;;;;4.00;1.82;;;;;;;37.51;25.55;100291.02;1793855;79;21093;-67
2021/07/13 09:15:04;;;;;;;3.17;2.10;;;;;;;37.45;26.94;100295.97;1799213;79;20954;-66
2021/07/13 09:17:47;;;;;;;4.58;2.10;;;;;;;37.72;24.74;100294.63;1803002;79;20941;-64
2021/07/13 09:20:22;;;;;;;2.95;1.85;;;;;;;37.68;24.73;100288.36;1789527;79;20966;-66
2021/07/13 09:23:01;;;;;;;3.30;1.90;;;;;;;37.76;24.04;100294.11;1803159;79;20961;-65
2021/07/13 09:25:40;;;;;;;3.10;1.90;;;;;;;37.94;24.70;100297.13;1790917;79;21540;-64
2021/07/13 09:28:16;;;;;;;3.15;1.80;;;;;;;37.94;23.21;100299.27;1801763;79;23318;-65
2021/07/13 09:30:57;;;;;;;3.50;1.80;;;;;;;37.65;23.62;100287.14;1803049;79;20996;-65
2021/07/13 09:33:28;;;;;;;3.27;1.90;;;;;;;37.77;25.33;100288.86;1801642;79;21483;-61
2021/07/13 09:36:05;;;;;;;5.10;2.10;;;;;;;37.93;25.02;100286.81;1795412;78;21081;-65
2021/07/13 09:38:36;;;;;;;2.40;1.72;;;;;;;38.20;23.72;100289.50;1800896;79;20989;-63
2021/07/13 09:41:07;;;;;;;;;;;;;;;38.07;24.11;100288.93;1798375;78;21719;-60
2021/07/13 09:43:54;;;;;;;5.78;2.08;;;;;;;37.97;22.81;100284.92;1800720;78;20573;-64
2021/07/13 09:46:40;;;;;;;3.05;1.87;;;;;;;37.53;24.26;100289.28;1789349;79;21517;-63
2021/07/13 09:49:23;;;;;;;2.75;1.90;;;;;;;37.66;23.86;100287.38;1797481;78;21390;-64
2021/07/13 09:52:03;;;;;;;3.83;2.00;;;;;;;37.64;23.21;100288.88;1800929;79;21016;-64
2021/07/13 09:54:40;;;;;;;2.60;1.50;;;;;;;37.69;24.22;100281.76;1801398;79;21060;-62
2021/07/13 09:57:18;;;;;;;4.55;1.82;;;;;;;37.84;23.39;100290.91;1800143;79;20980;-63
2021/07/13 09:59:47;;;;;;;3.52;2.10;;;;;;;37.84;22.68;100274.59;1799967;79;21049;-64
2021/07/13 10:02:17;;;;;;;2.00;1.70;;;;;;;37.71;21.43;100274.03;1798835;79;21072;-60
2021/07/13 10:04:46;;;;;;;5.00;2.05;;;;;;;37.48;21.80;100275.43;1808776;77;21156;-62
2021/07/13 10:07:17;;;;;;;4.45;1.80;;;;;;;37.44;23.91;100275.38;1810285;78;20939;-64
2021/07/13 10:09:50;;;;;;;2.77;1.77;;;;;;;37.62;23.49;100277.56;1808449;77;21070;-65
2021/07/13 10:12:19;;;;;;;2.45;1.80;;;;;;;37.71;22.32;100276.17;1810490;77;21058;-61
2021/07/13 10:14:48;;;;;;;2.72;1.70;;;;;;;37.72;21.09;100272.87;1809673;78;21362;-66
2021/07/13 10:17:15;;;;;;;1.98;1.72;;;;;;;37.93;22.57;100269.12;1808614;79;20994;-65
2021/07/13 10:19:52;;;;;;;3.47;1.72;;;;;;;37.56;22.38;100277.11;1809108;78;21051;-67
2021/07/13 10:22:22;;;;;;;4.28;1.80;;;;;;;37.42;22.41;100268.14;1801791;78;21068;-65
2021/07/13 10:24:51;;;;;;;3.52;1.75;;;;;;;37.73;22.22;100266.27;1810213;78;21001;-67
2021/07/13 10:27:35;;;;;;;2.72;1.72;;;;;;;38.15;22.13;100269.39;1810347;79;20931;-65
2021/07/13 10:30:07;;;;;;;5.35;1.70;;;;;;;38.29;22.39;100272.88;1809796;78;21061;-65
2021/07/13 10:32:38;;;;;;;2.80;1.70;;;;;;;37.95;22.39;100268.75;1810750;79;21777;-66
2021/07/13 10:35:23;;;;;;;5.30;2.00;;;;;;;38.00;22.86;100267.64;1810289;78;21108;-62
2021/07/13 10:37:54;;;;;;;3.87;1.90;;;;;;;38.12;21.97;100261.98;1810779;78;21045;-66
2021/07/13 10:40:33;;;;;;;3.40;1.77;;;;;;;38.19;20.94;100264.80;1810876;78;21458;-65
2021/07/13 10:43:03;;;;;;;3.97;1.70;;;;;;;38.06;20.37;100273.76;1810258;78;20886;-65
2021/07/13 10:45:42;;;;;;;1.77;1.30;;;;;;;37.82;20.33;100270.89;1810141;78;21096;-65
2021/07/13 10:48:16;;;;;;;2.90;1.70;;;;;;;37.64;19.76;100275.28;1809301;78;21855;-64
2021/07/13 10:50:47;;;;;;;3.42;1.55;;;;;;;37.61;20.58;100267.84;1810705;78;20990;-63
2021/07/13 10:53:39;;;;;;;5.03;2.05;;;;;;;37.86;20.77;100270.36;1812133;78;21036;-63
2021/07/13 10:56:19;;;;;;;2.70;1.70;;;;;;;37.84;20.34;100263.13;1805391;79;20993;-65
2021/07/13 10:58:49;;;;;;;3.08;1.70;;;;;;;37.88;21.15;100258.55;1810822;78;21218;-65
2021/07/13 11:01:35;;;;;;;2.55;1.65;;;;;;;38.01;21.15;100266.50;1805107;78;21251;-65
2021/07/13 11:04:07;;;;;;;5.08;1.45;;;;;;;37.97;21.32;100260.44;1796990;78;21006;-65
2021/07/13 11:06:50;;;;;;;3.12;1.52;;;;;;;38.00;21.63;100264.91;1758025;80;20890;-64
2021/07/13 11:09:27;;;;;;;2.33;1.50;;;;;;;37.76;20.80;100264.76;1786839;79;20879;-65
2021/07/13 11:12:05;;;;;;;2.52;1.50;;;;;;;37.60;20.64;100262.98;1757907;80;21039;-62
2021/07/13 11:14:36;;;;;;;3.17;1.40;;;;;;;37.31;21.45;100270.45;1758104;80;21032;-66
2021/07/13 11:17:04;;;;;;;2.10;1.40;;;;;;;37.23;20.41;100264.11;1756926;80;21028;-63
2021/07/13 11:19:32;;;;;;;4.60;1.72;;;;;;;37.21;20.47;100264.48;1786676;78;21514;-66
2021/07/13 11:22:00;;;;;;;2.65;1.70;;;;;;;37.20;19.65;100256.68;1785202;79;21916;-63
2021/07/13 11:24:27;;;;;;;3.95;1.85;;;;;;;37.56;20.91;100258.65;1778224;79;21139;-63
2021/07/13 11:26:56;;;;;;;2.58;1.65;;;;;;;37.82;20.59;100249.12;1786647;79;20915;-66
2021/07/13 11:29:28;;;;;;;3.95;1.90;;;;;;;37.87;21.07;100262.39;1785783;79;21540;-65
2021/07/13 11:32:03;;;;;;;3.55;1.82;;;;;;;37.69;20.27;100267.58;1784330;78;21403;-64
2021/07/13 11:34:37;;;;;;;3.05;1.40;;;;;;;37.45;21.12;100260.62;1786126;79;20993;-64
2021/07/13 11:37:06;;;;;;;3.10;1.60;;;;;;;37.88;20.67;100256.41;1785547;79;21567;-65